Time;durP1;ratioP1;P1;durP2;ratioP2;P2;SDS_P1;SDS_P2;PMS_P1;PMS_P2;Temp;Humidity;BMP_temperature;BMP_pressure;BME280_temperature;BME280_humidity;BME280_pressure;Samples;Min_cycle;Max_cycle;Signal;HPM_P1;HPM_P2
2022/06/23 00:01:34;;;;;;;5.45;3.35;;;14.20;99.90;;;;;;5072777;28;20048;-75
2022/06/23 00:04:00;;;;;;;4.82;3.05;;;14.20;99.90;;;;;;5091041;28;20510;-75
2022/06/23 00:06:44;;;;;;;9.05;3.70;;;14.10;99.90;;;;;;5072781;28;20048;-75
2022/06/23 00:09:45;;;;;;;8.25;3.92;;;14.20;99.90;;;;;;5091112;28;20040;-73
2022/06/23 00:12:19;;;;;;;6.20;3.63;;;14.10;99.90;;;;;;5079895;28;20487;-74
2022/06/23 00:15:15;;;;;;;4.72;3.42;;;14.10;99.90;;;;;;5090897;28;20044;-75
2022/06/23 00:17:53;;;;;;;7.35;4.43;;;14.10;99.90;;;;;;5085903;28;20048;-76
2022/06/23 00:20:23;;;;;;;6.50;4.25;;;14.10;99.90;;;;;;5090799;28;20169;-75
2022/06/23 00:22:54;;;;;;;5.70;3.90;;;14.10;99.90;;;;;;5090926;28;20052;-74
2022/06/23 00:25:55;;;;;;;9.38;4.78;;;14.10;99.90;;;;;;5072619;28;20055;-75
2022/06/23 00:28:22;;;;;;;6.43;4.18;;;14.10;99.90;;;;;;5011646;28;20057;-74
2022/06/23 00:30:55;;;;;;;9.07;4.55;;;14.10;99.90;;;;;;5011356;28;20711;-73
2022/06/23 00:33:28;;;;;;;6.55;4.47;;;14.30;99.90;;;;;;5028207;28;20060;-74
2022/06/23 00:35:55;;;;;;;7.00;4.35;;;14.00;99.90;;;;;;5012037;28;20136;-75
2022/06/23 00:38:28;;;;;;;7.80;4.80;;;14.10;99.90;;;;;;5011956;28;20060;-75
2022/06/23 00:40:57;;;;;;;6.68;4.30;;;14.00;99.90;;;;;;5027959;28;20574;-76
2022/06/23 00:43:23;;;;;;;7.07;4.22;;;14.00;99.90;;;;;;5028040;28;20056;-73
2022/06/23 00:46:00;;;;;;;7.40;4.63;;;14.00;99.90;;;;;;5027744;28;20050;-74
2022/06/23 00:48:37;;;;;;;7.07;5.03;;;14.00;99.90;;;;;;5028025;28;20045;-75
2022/06/23 00:51:24;;;;;;;6.05;4.50;;;14.00;99.90;;;;;;5027658;28;20050;-73
2022/06/23 00:54:14;;;;;;;8.43;5.30;;;14.00;99.90;;;;;;5027823;28;20518;-77
2022/06/23 00:56:42;;;;;;;6.30;4.72;;;14.00;99.90;;;;;;5028089;28;20058;-74
2022/06/23 00:59:50;;;;;;;8.60;5.10;;;14.00;99.90;;;;;;5011300;28;20053;-74
2022/06/23 01:02:32;;;;;;;8.07;5.53;;;13.90;99.90;;;;;;5007921;28;20060;-74
2022/06/23 01:05:04;;;;;;;8.65;5.57;;;13.90;99.90;;;;;;5044411;28;20048;-74
2022/06/23 01:07:35;;;;;;;6.55;5.72;;;13.90;99.90;;;;;;5047652;28;20061;-76
2022/06/23 01:10:20;;;;;;;7.68;5.10;;;13.90;99.90;;;;;;5047717;28;20056;-75
2022/06/23 01:13:27;;;;;;;7.80;5.32;;;13.90;99.90;;;;;;5031055;28;20052;-74
2022/06/23 01:16:22;;;;;;;10.48;5.55;;;13.80;99.90;;;;;;5007774;28;20576;-75
2022/06/23 01:19:12;;;;;;;10.35;6.22;;;13.80;99.90;;;;;;5008285;28;20485;-74
2022/06/23 01:21:45;;;;;;;7.32;6.00;;;13.80;99.90;;;;;;5008191;28;20065;-74
2022/06/23 01:24:17;;;;;;;11.52;6.30;;;13.80;99.90;;;;;;5008204;28;20049;-75
2022/06/23 01:27:12;;;;;;;7.78;6.18;;;13.70;99.90;;;;;;5008021;28;20136;-74
2022/06/23 01:29:42;;;;;;;6.95;5.65;;;13.80;99.90;;;;;;4991819;28;20967;-75
2022/06/23 01:32:18;;;;;;;11.45;6.80;;;13.70;99.90;;;;;;4990566;28;20184;-75
2022/06/23 01:34:59;;;;;;;8.18;6.25;;;13.70;99.90;;;;;;5007994;28;20057;-74
2022/06/23 01:37:38;;;;;;;8.82;6.40;;;13.70;99.90;;;;;;5007769;28;20087;-76
2022/06/23 01:40:25;;;;;;;8.63;6.20;;;13.70;99.90;;;;;;5025327;28;20061;-74
2022/06/23 01:43:00;;;;;;;8.98;6.82;;;13.70;99.90;;;;;;5011335;28;20453;-75
2022/06/23 01:46:14;;;;;;;9.63;6.00;;;13.70;99.90;;;;;;5027177;28;20140;-75
2022/06/23 01:49:14;;;;;;;11.13;6.47;;;13.60;99.90;;;;;;4987919;28;20134;-74
2022/06/23 01:51:46;;;;;;;9.57;6.13;;;13.60;99.90;;;;;;4988230;28;20115;-74
2022/06/23 01:54:20;;;;;;;9.88;6.47;;;13.60;99.90;;;;;;4994785;28;20058;-75
2022/06/23 01:56:54;;;;;;;9.67;6.83;;;13.60;99.90;;;;;;5011322;28;20441;-75
2022/06/23 01:59:32;;;;;;;10.55;6.95;;;13.50;99.90;;;;;;5011115;28;20312;-74
2022/06/23 02:02:25;;;;;;;9.82;7.32;;;13.50;99.90;;;;;;5010947;28;20627;-74
2022/06/23 02:05:12;;;;;;;8.73;6.63;;;13.50;99.90;;;;;;5011058;28;20153;-75
2022/06/23 02:07:41;;;;;;;8.98;6.70;;;13.50;99.90;;;;;;5010976;28;20156;-76
2022/06/23 02:10:30;;;;;;;14.48;7.63;;;13.40;99.90;;;;;;4994652;28;20529;-75
2022/06/23 02:13:19;;;;;;;11.60;7.00;;;13.40;99.90;;;;;;4994301;28;20147;-75
2022/06/23 02:16:02;;;;;;;11.65;6.47;;;13.60;99.90;;;;;;5010925;28;20060;-75
2022/06/23 02:18:37;;;;;;;9.23;7.20;;;13.40;99.90;;;;;;5010475;28;20054;-74
2022/06/23 02:21:31;;;;;;;11.68;7.57;;;13.40;99.90;;;;;;5010666;28;20739;-75
2022/06/23 02:24:16;;;;;;;14.63;7.65;;;13.40;99.90;;;;;;5012574;28;20058;-74
2022/06/23 02:27:00;;;;;;;9.73;7.13;;;13.40;99.90;;;;;;5074984;28;20087;-75
2022/06/23 02:29:45;;;;;;;12.20;8.52;;;13.30;99.90;;;;;;5092802;28;20086;-77
2022/06/23 02:32:31;;;;;;;11.18;7.63;;;13.40;99.90;;;;;;5092932;28;20054;-75
2022/06/23 02:35:08;;;;;;;13.68;8.35;;;13.30;99.90;;;;;;5092944;28;20040;-75
2022/06/23 02:37:51;;;;;;;13.50;8.07;;;13.30;99.90;;;;;;5091769;28;20046;-75
2022/06/23 02:40:56;;;;;;;13.00;8.30;;;13.30;99.90;;;;;;5092950;28;20043;-74
2022/06/23 02:43:29;;;;;;;12.88;9.20;;;13.30;99.90;;;;;;5092320;28;20047;-75
2022/06/23 02:46:22;;;;;;;12.07;8.27;;;13.30;99.90;;;;;;5092737;28;20048;-76
2022/06/23 02:49:21;;;;;;;11.90;8.68;;;13.30;99.90;;;;;;5092284;28;20449;-77
2022/06/23 02:52:08;;;;;;;13.57;8.30;;;13.30;99.90;;;;;;5074808;28;20040;-77
2022/06/23 02:55:01;;;;;;;12.73;8.00;;;13.20;99.90;;;;;;5092636;28;20048;-76
2022/06/23 02:57:43;;;;;;;10.77;7.95;;;13.20;99.90;;;;;;5074306;28;20044;-76
2022/06/23 03:00:30;;;;;;;12.88;7.93;;;13.20;99.90;;;;;;5092504;28;20107;-76
2022/06/23 03:03:11;;;;;;;13.10;8.25;;;13.10;99.90;;;;;;5092289;28;20112;-75
2022/06/23 03:05:57;;;;;;;14.05;9.57;;;13.20;99.90;;;;;;5091995;28;20040;-75
2022/06/23 03:08:51;;;;;;;13.63;8.85;;;13.20;99.90;;;;;;5092190;28;20529;-77
2022/06/23 03:14:56;;;;;;;12.85;9.52;;;13.10;99.90;;;;;;5029548;28;20546;-76
2022/06/23 03:17:33;;;;;;;17.88;9.68;;;13.10;99.90;;;;;;5029416;28;20064;-75
2022/06/23 03:20:22;;;;;;;14.77;8.80;;;13.00;99.90;;;;;;5029142;28;20095;-73
2022/06/23 03:23:04;;;;;;;15.50;9.10;;;13.00;99.90;;;;;;4990018;28;20058;-73
2022/06/23 03:25:37;;;;;;;11.88;9.25;;;13.00;99.90;;;;;;4989689;28;20153;-74
2022/06/23 03:28:20;;;;;;;13.23;8.90;;;13.00;99.90;;;;;;4973687;28;20050;-73
2022/06/23 03:30:51;;;;;;;16.33;9.80;;;13.00;99.90;;;;;;4989882;28;20054;-73
2022/06/23 03:33:21;;;;;;;13.95;9.35;;;12.90;99.90;;;;;;4989729;28;20125;-75
2022/06/23 03:36:11;;;;;;;14.50;9.50;;;12.90;99.90;;;;;;4973396;28;20053;-74
2022/06/23 03:41:42;;;;;;;14.75;9.65;;;13.00;99.90;;;;;;4989728;28;20119;-75
2022/06/23 03:44:27;;;;;;;14.93;9.07;;;12.90;99.90;;;;;;4989614;28;20413;-75
2022/06/23 03:47:15;;;;;;;16.20;10.20;;;13.00;99.90;;;;;;4989781;28;20054;-75
2022/06/23 03:49:49;;;;;;;16.05;9.50;;;13.00;99.90;;;;;;5002455;28;20085;-75
2022/06/23 03:52:36;;;;;;;13.90;9.07;;;13.00;99.90;;;;;;5028481;28;20069;-73
2022/06/23 03:55:13;;;;;;;13.40;9.07;;;13.00;99.90;;;;;;5028873;28;20936;-74
2022/06/23 03:57:53;;;;;;;14.02;9.13;;;13.00;99.90;;;;;;5028825;28;20096;-74
2022/06/23 04:00:35;;;;;;;14.55;9.57;;;13.00;99.90;;;;;;5072377;28;20059;-74
2022/06/23 04:03:33;;;;;;;14.00;9.55;;;13.10;99.90;;;;;;5072323;28;20503;-76
2022/06/23 04:06:12;;;;;;;14.15;9.77;;;13.10;99.90;;;;;;5090866;28;20048;-75
2022/06/23 04:08:59;;;;;;;13.85;9.18;;;13.10;99.90;;;;;;5091113;28;20051;-75
2022/06/23 04:11:44;;;;;;;12.80;9.73;;;13.20;99.90;;;;;;5091153;28;20047;-75
2022/06/23 04:14:39;;;;;;;14.05;10.30;;;13.20;99.90;;;;;;5091074;28;20121;-73
2022/06/23 04:17:14;;;;;;;15.73;10.77;;;13.20;99.90;;;;;;5088394;28;20397;-74
2022/06/23 04:20:03;;;;;;;14.10;9.85;;;13.30;99.90;;;;;;5090660;28;20496;-74
2022/06/23 04:22:50;;;;;;;15.65;10.10;;;13.30;99.90;;;;;;5079385;28;20495;-74
2022/06/23 04:25:20;;;;;;;13.13;9.75;;;13.30;99.90;;;;;;5090902;28;20055;-74
2022/06/23 04:27:53;;;;;;;13.38;9.18;;;13.40;99.90;;;;;;5090942;28;20051;-74
2022/06/23 04:30:40;;;;;;;13.18;9.63;;;13.40;99.90;;;;;;5091130;28;20040;-74
2022/06/23 04:33:16;;;;;;;13.73;9.85;;;13.40;99.90;;;;;;5090460;28;20056;-75
2022/06/23 04:35:54;;;;;;;15.05;9.82;;;13.50;99.90;;;;;;5090622;28;20104;-74
2022/06/23 04:38:25;;;;;;;12.93;9.80;;;13.50;99.90;;;;;;5090613;28;20044;-75
2022/06/23 04:41:09;;;;;;;16.52;10.50;;;13.60;99.90;;;;;;5090828;28;20040;-75
2022/06/23 04:43:53;;;;;;;13.18;10.07;;;13.60;99.90;;;;;;5090496;28;20071;-74
2022/06/23 04:46:31;;;;;;;17.33;11.00;;;13.60;99.90;;;;;;5090698;28;20076;-75
2022/06/23 04:49:04;;;;;;;15.52;9.77;;;13.70;99.90;;;;;;5090395;28;20050;-74
2022/06/23 04:51:32;;;;;;;16.77;11.10;;;13.80;99.90;;;;;;5090804;28;20044;-74
2022/06/23 04:54:10;;;;;;;14.43;9.80;;;13.80;99.90;;;;;;5071883;28;20156;-74
2022/06/23 04:56:46;;;;;;;17.88;9.68;;;13.90;99.90;;;;;;5090542;28;20040;-74
2022/06/23 04:59:57;;;;;;;14.05;10.52;;;14.00;99.90;;;;;;5072304;28;20150;-76
2022/06/23 05:02:32;;;;;;;15.50;9.32;;;14.00;99.90;;;;;;5086224;28;20054;-74
2022/06/23 05:05:03;;;;;;;14.15;9.80;;;14.10;99.90;;;;;;5090574;28;20048;-74
2022/06/23 05:07:42;;;;;;;11.48;9.07;;;14.20;99.90;;;;;;5090270;28;20048;-74
2022/06/23 05:10:32;;;;;;;15.35;9.60;;;14.40;99.90;;;;;;5090121;28;20048;-74
2022/06/23 05:13:03;;;;;;;16.15;9.25;;;14.40;99.90;;;;;;5079163;28;20055;-74
2022/06/23 05:15:36;;;;;;;12.75;8.95;;;14.50;99.90;;;;;;5090572;28;20403;-74
2022/06/23 05:18:21;;;;;;;16.00;10.43;;;14.60;99.90;;;;;;5090512;28;20658;-74
2022/06/23 05:20:58;;;;;;;13.85;9.35;;;14.70;99.90;;;;;;5090753;28;20044;-74
2022/06/23 05:23:39;;;;;;;12.63;8.77;;;14.80;99.90;;;;;;5090255;28;20119;-73
2022/06/23 05:26:12;;;;;;;15.05;9.13;;;15.10;99.90;;;;;;5090310;28;20403;-74
2022/06/23 05:28:38;;;;;;;13.65;8.38;;;15.00;99.90;;;;;;5075460;28;20048;-73
2022/06/23 05:31:09;;;;;;;13.07;9.20;;;15.10;99.90;;;;;;5093883;28;20032;-74
2022/06/23 05:33:36;;;;;;;12.45;8.65;;;15.40;99.90;;;;;;5094128;28;20055;-73
2022/06/23 05:36:06;;;;;;;14.73;9.90;;;15.40;99.90;;;;;;5094126;28;20040;-74
2022/06/23 05:38:40;;;;;;;13.68;9.05;;;15.40;99.90;;;;;;5093961;28;20044;-73
2022/06/23 05:41:22;;;;;;;14.98;9.38;;;15.50;99.90;;;;;;5093963;28;20051;-74
2022/06/23 05:43:50;;;;;;;13.85;9.13;;;15.70;99.90;;;;;;5092386;28;20101;-73
2022/06/23 05:46:20;;;;;;;14.50;8.82;;;15.80;99.90;;;;;;5075916;28;20060;-73
2022/06/23 05:48:55;;;;;;;11.70;9.20;;;15.90;99.90;;;;;;5094086;28;20043;-74
2022/06/23 05:51:24;;;;;;;;;;;16.00;99.90;;;;;;5094246;28;20349;-75
2022/06/23 05:54:08;;;;;;;14.40;9.52;;;16.10;99.90;;;;;;5093636;28;19924;-75
2022/06/23 05:56:42;;;;;;;14.75;8.82;;;16.20;99.90;;;;;;5093639;28;20051;-73
2022/06/23 05:59:36;;;;;;;13.05;8.45;;;16.30;99.90;;;;;;5093525;28;20036;-73
2022/06/23 06:02:11;;;;;;;11.52;8.82;;;16.50;99.90;;;;;;5075192;28;20055;-74
2022/06/23 06:04:55;;;;;;;11.30;7.70;;;16.70;99.90;;;;;;5093380;28;20040;-75
2022/06/23 06:07:26;;;;;;;13.43;8.55;;;16.80;99.90;;;;;;5075243;28;20059;-75
2022/06/23 06:09:53;;;;;;;12.20;8.50;;;16.90;99.90;;;;;;5074633;28;20063;-74
2022/06/23 06:12:24;;;;;;;14.05;8.85;;;17.00;99.90;;;;;;5093311;28;20047;-75
2022/06/23 06:14:58;;;;;;;11.70;8.07;;;17.10;99.90;;;;;;5093220;28;20052;-75
2022/06/23 06:17:28;;;;;;;13.35;8.40;;;17.20;99.90;;;;;;5093065;28;20093;-73
2022/06/23 06:19:58;;;;;;;11.38;8.13;;;17.40;99.90;;;;;;5093399;28;20176;-74
2022/06/23 06:22:47;;;;;;;11.50;7.80;;;17.70;99.90;;;;;;5093324;28;20048;-75
2022/06/23 06:25:24;;;;;;;14.77;8.30;;;17.70;99.90;;;;;;5093011;28;20075;-76
2022/06/23 06:27:54;;;;;;;11.35;7.38;;;17.80;99.90;;;;;;5092845;28;20086;-74
2022/06/23 06:30:37;;;;;;;9.00;7.40;;;17.90;99.90;;;;;;5093324;28;20078;-76
2022/06/23 06:33:04;;;;;;;13.77;7.40;;;18.20;99.90;;;;;;5092891;28;20499;-73
2022/06/23 06:35:41;;;;;;;11.02;7.53;;;18.30;99.90;;;;;;5092791;28;20044;-74
2022/06/23 06:38:17;;;;;;;9.80;6.85;;;18.60;99.90;;;;;;5092321;28;20048;-75
2022/06/23 06:40:46;;;;;;;14.73;6.88;;;18.90;99.90;;;;;;5092502;28;20040;-75
2022/06/23 06:43:17;;;;;;;9.75;7.22;;;19.10;99.90;;;;;;5092916;28;20055;-74
2022/06/23 06:45:43;;;;;;;8.30;6.07;;;19.30;99.90;;;;;;5092633;28;20051;-74
2022/06/23 06:48:17;;;;;;;10.43;5.93;;;19.60;99.90;;;;;;5092650;28;20044;-74
2022/06/23 06:50:47;;;;;;;11.23;6.40;;;19.80;99.90;;;;;;5092451;28;20076;-74
2022/06/23 06:53:37;;;;;;;8.80;6.30;;;20.00;99.90;;;;;;5092486;28;20491;-73
2022/06/23 06:56:19;;;;;;;9.43;6.55;;;20.30;99.90;;;;;;5091948;28;20486;-73
2022/06/23 06:59:01;;;;;;;13.27;6.07;;;20.60;99.90;;;;;;5092490;28;20070;-73
2022/06/23 07:01:30;;;;;;;7.32;5.47;;;20.70;99.90;;;;;;5092338;28;20126;-75
2022/06/23 07:03:56;;;;;;;10.27;5.68;;;21.00;99.90;;;;;;5092442;28;20036;-74
2022/06/23 07:06:39;;;;;;;10.50;6.03;;;21.30;99.90;;;;;;5092523;28;20420;-75
2022/06/23 07:09:15;;;;;;;10.00;6.18;;;21.50;99.90;;;;;;5092156;28;20559;-74
2022/06/23 07:12:00;;;;;;;9.27;5.68;;;21.70;99.90;;;;;;5091829;28;20131;-74
2022/06/23 07:14:42;;;;;;;8.82;5.68;;;22.10;99.90;;;;;;5073781;28;20429;-72
2022/06/23 07:17:37;;;;;;;9.65;6.38;;;22.30;99.90;;;;;;5091956;28;20097;-74
2022/06/23 07:20:14;;;;;;;10.38;5.57;;;22.40;99.90;;;;;;5091848;28;20506;-73
2022/06/23 07:22:47;;;;;;;11.10;6.00;;;22.60;99.90;;;;;;5092098;28;20086;-74
2022/06/23 07:25:22;;;;;;;9.52;6.03;;;22.80;99.90;;;;;;5091827;28;20044;-74
2022/06/23 07:27:55;;;;;;;10.07;5.93;;;23.00;99.90;;;;;;5091931;28;20083;-74
2022/06/23 07:30:42;;;;;;;11.57;6.43;;;23.30;99.90;;;;;;5092303;28;20040;-73
2022/06/23 07:33:26;;;;;;;9.88;5.95;;;23.60;99.90;;;;;;5091930;28;20127;-74
2022/06/23 07:36:07;;;;;;;10.50;6.00;;;23.70;99.90;;;;;;5091950;28;20044;-75
2022/06/23 07:38:38;;;;;;;12.55;6.20;;;23.80;99.90;;;;;;5091535;28;20047;-73
2022/06/23 07:41:12;;;;;;;7.18;5.05;;;24.00;99.90;;;;;;5091513;28;20052;-75
2022/06/23 07:43:54;;;;;;;8.47;5.13;;;24.10;99.90;;;;;;5082443;28;20492;-75
2022/06/23 07:46:20;;;;;;;9.68;4.93;;;24.20;99.90;;;;;;5073684;28;20432;-74
2022/06/23 07:48:46;;;;;;;8.10;5.28;;;24.30;99.90;;;;;;5091604;28;20126;-75
2022/06/23 07:51:13;;;;;;;8.18;5.97;;;24.30;99.90;;;;;;5072566;28;20055;-75
2022/06/23 07:53:44;;;;;;;9.32;5.47;;;24.50;99.90;;;;;;5091265;28;20048;-74
2022/06/23 07:56:14;;;;;;;7.93;5.20;;;24.70;99.90;;;;;;5091549;28;20051;-74
2022/06/23 07:58:42;;;;;;;6.60;4.65;;;24.80;99.90;;;;;;5091218;28;20028;-73
2022/06/23 08:01:15;;;;;;;8.93;5.10;;;24.90;99.90;;;;;;5091378;28;20054;-77
2022/06/23 08:03:59;;;;;;;12.13;5.40;;;24.90;99.90;;;;;;5091363;28;20039;-75
2022/06/23 08:06:26;;;;;;;11.10;5.20;;;25.00;99.90;;;;;;5090909;28;20079;-77
2022/06/23 08:08:56;;;;;;;6.32;4.85;;;25.30;99.90;;;;;;5090984;28;20646;-74
2022/06/23 08:14:13;;;;;;;10.30;4.93;;;25.20;99.90;;;;;;5090753;28;20052;-74
2022/06/23 08:16:51;;;;;;;10.25;5.32;;;25.40;99.90;;;;;;5091014;28;20059;-74
2022/06/23 08:19:48;;;;;;;7.45;4.68;;;25.50;99.90;;;;;;5090908;28;20150;-78
2022/06/23 08:22:30;;;;;;;9.95;4.60;;;25.60;99.90;;;;;;5090817;28;20079;-76
2022/06/23 08:24:58;;;;;;;9.18;3.95;;;25.90;99.90;;;;;;5090753;28;20044;-75
2022/06/23 08:27:28;;;;;;;7.95;4.35;;;25.90;99.90;;;;;;5090679;28;20051;-75
2022/06/23 08:30:00;;;;;;;6.63;3.88;;;26.00;99.90;;;;;;5090492;28;20085;-77
2022/06/23 08:32:29;;;;;;;5.97;3.83;;;26.10;99.90;;;;;;5072441;28;20504;-75
2022/06/23 08:35:17;;;;;;;12.15;3.50;;;26.40;99.90;;;;;;5090753;28;20388;-76
2022/06/23 08:37:56;;;;;;;7.60;4.25;;;26.50;99.90;;;;;;5090718;28;20044;-76
2022/06/23 08:40:37;;;;;;;7.80;3.30;;;26.60;99.90;;;;;;5090720;28;20115;-74
2022/06/23 08:43:26;;;;;;;12.60;4.70;;;26.70;99.90;;;;;;5090786;28;20062;-75
2022/06/23 08:46:25;;;;;;;8.82;3.40;;;26.60;99.90;;;;;;5090384;28;20058;-76
2022/06/23 08:49:08;;;;;;;8.30;4.85;;;26.80;99.90;;;;;;5072778;28;20088;-77
2022/06/23 08:51:52;;;;;;;5.53;3.80;;;26.90;99.90;;;;;;5090622;28;20036;-75
2022/06/23 08:54:30;;;;;;;11.15;4.20;;;27.10;99.90;;;;;;5072275;28;20040;-76
2022/06/23 08:57:03;;;;;;;7.68;3.40;;;27.10;99.90;;;;;;5090348;28;20132;-75
2022/06/23 08:59:39;;;;;;;8.65;3.63;;;27.10;99.90;;;;;;5090605;28;20052;-74
2022/06/23 09:02:39;;;;;;;8.75;4.43;;;27.30;99.90;;;;;;5092879;28;20553;-75
2022/06/23 09:05:17;;;;;;;6.88;3.60;;;27.30;99.90;;;;;;5012162;28;20054;-75
2022/06/23 09:07:52;;;;;;;7.18;3.40;;;27.40;99.90;;;;;;5012473;28;20120;-73
2022/06/23 09:10:29;;;;;;;7.35;3.47;;;27.30;99.80;;;;;;5012304;28;20046;-74
2022/06/23 09:13:09;;;;;;;7.45;4.00;;;27.40;99.90;;;;;;5012006;28;20048;-76
2022/06/23 09:15:52;;;;;;;9.93;3.80;;;27.40;99.90;;;;;;5011508;28;20054;-74
2022/06/23 09:18:29;;;;;;;10.17;3.40;;;27.50;99.70;;;;;;5012044;28;20049;-74
2022/06/23 09:21:08;;;;;;;6.72;3.78;;;27.70;99.90;;;;;;5012027;28;20304;-73
2022/06/23 09:23:51;;;;;;;7.60;3.70;;;27.70;99.70;;;;;;5011988;28;20046;-72
2022/06/23 09:26:36;;;;;;;6.63;3.85;;;27.80;99.00;;;;;;5011915;28;20042;-75
2022/06/23 09:29:14;;;;;;;6.60;3.08;;;27.80;99.30;;;;;;5011657;28;20068;-74
2022/06/23 09:31:51;;;;;;;5.03;2.88;;;28.00;98.20;;;;;;5011435;28;20045;-75
2022/06/23 09:34:28;;;;;;;5.78;2.72;;;28.20;99.00;;;;;;5011628;28;20058;-75
2022/06/23 09:37:25;;;;;;;5.00;2.85;;;28.30;98.70;;;;;;5011768;28;20089;-75
2022/06/23 09:40:15;;;;;;;7.28;2.90;;;28.30;97.20;;;;;;5012012;28;20117;-73
2022/06/23 09:42:49;;;;;;;9.18;3.17;;;28.30;97.80;;;;;;5092191;28;20059;-74
2022/06/23 09:45:44;;;;;;;19.63;3.55;;;28.40;98.10;;;;;;5093736;28;20149;-75
2022/06/23 09:48:30;;;;;;;;;;;28.40;98.20;;;;;;5093991;28;20093;-76
2022/06/23 09:51:20;;;;;;;8.90;3.25;;;28.40;97.10;;;;;;5093797;28;20341;-76
2022/06/23 09:54:04;;;;;;;6.38;2.88;;;28.40;96.70;;;;;;5075353;28;20094;-73
2022/06/23 09:56:45;;;;;;;5.93;3.05;;;28.60;97.40;;;;;;5093528;28;20062;-76
2022/06/23 09:59:42;;;;;;;6.90;2.65;;;28.80;97.50;;;;;;5093701;28;20139;-75
2022/06/23 10:02:32;;;;;;;7.55;2.60;;;28.80;97.00;;;;;;5071882;28;20087;-75
2022/06/23 10:05:22;;;;;;;5.95;2.30;;;28.90;96.10;;;;;;5093670;28;20040;-74
2022/06/23 10:08:02;;;;;;;6.72;2.40;;;29.00;96.60;;;;;;5093566;28;20413;-76
2022/06/23 10:10:51;;;;;;;9.45;2.50;;;29.10;96.20;;;;;;5093117;28;20052;-74
2022/06/23 10:13:20;;;;;;;6.60;2.28;;;29.20;95.70;;;;;;5074533;28;20044;-74
2022/06/23 10:16:01;;;;;;;6.88;2.45;;;29.20;96.00;;;;;;5093400;28;20047;-77
2022/06/23 10:18:30;;;;;;;6.65;2.90;;;29.20;95.10;;;;;;5092960;28;20048;-74
2022/06/23 10:21:08;;;;;;;4.55;2.38;;;29.30;95.60;;;;;;5092833;28;20075;-77
2022/06/23 10:23:48;;;;;;;5.88;2.38;;;29.30;95.10;;;;;;5091714;28;20059;-75
2022/06/23 10:26:32;;;;;;;5.53;2.10;;;29.40;94.80;;;;;;5092889;28;20054;-75
2022/06/23 10:29:17;;;;;;;10.73;2.35;;;29.50;95.20;;;;;;5093172;28;20052;-73
2022/06/23 10:31:55;;;;;;;5.60;2.00;;;29.60;93.70;;;;;;5093235;28;20044;-73
2022/06/23 10:34:36;;;;;;;5.50;2.08;;;29.70;93.60;;;;;;5092869;28;20055;-73
2022/06/23 10:37:11;;;;;;;3.60;2.10;;;29.70;93.20;;;;;;5092918;28;20040;-73
2022/06/23 10:39:46;;;;;;;4.30;1.95;;;29.70;93.00;;;;;;5074390;28;20051;-75
2022/06/23 10:42:30;;;;;;;6.85;2.17;;;29.80;93.50;;;;;;5093048;28;20050;-75
2022/06/23 10:45:06;;;;;;;10.48;2.60;;;30.10;91.60;;;;;;5092646;28;20090;-74
2022/06/23 10:47:52;;;;;;;5.75;1.80;;;30.20;92.40;;;;;;5092704;28;20044;-74
2022/06/23 10:50:36;;;;;;;3.72;1.70;;;30.00;90.50;;;;;;5029528;28;20049;-73
2022/06/23 10:53:40;;;;;;;4.97;1.70;;;30.20;91.30;;;;;;5029768;28;20475;-75
2022/06/23 10:56:24;;;;;;;5.75;1.80;;;30.40;91.70;;;;;;5029882;28;20440;-76
2022/06/23 10:58:49;;;;;;;3.90;2.55;;;30.60;91.00;;;;;;5029767;28;20255;-74
2022/06/23 11:01:32;;;;;;;6.90;2.00;;;30.50;90.40;;;;;;5029834;28;20057;-75
2022/06/23 11:04:29;;;;;;;7.65;2.35;;;30.60;91.00;;;;;;5029442;28;20046;-75
2022/06/23 11:07:15;;;;;;;6.60;2.10;;;30.60;90.50;;;;;;5029787;28;20100;-75
2022/06/23 11:10:02;;;;;;;5.05;1.52;;;30.60;89.80;;;;;;5030123;28;20053;-73
2022/06/23 11:12:39;;;;;;;5.57;1.83;;;30.60;90.40;;;;;;5029758;28;20049;-75
2022/06/23 11:15:40;;;;;;;8.65;1.80;;;30.70;90.20;;;;;;5029536;28;20059;-75
2022/06/23 11:18:39;;;;;;;2.50;1.42;;;31.00;90.40;;;;;;5028367;28;20473;-73
2022/06/23 11:21:27;;;;;;;8.35;1.95;;;31.00;89.60;;;;;;5028785;28;20496;-74
2022/06/23 11:24:16;;;;;;;7.65;1.90;;;31.00;88.30;;;;;;5028973;28;20048;-76
2022/06/23 11:26:50;;;;;;;7.68;1.77;;;31.10;90.50;;;;;;5021849;28;20064;-74
2022/06/23 11:29:39;;;;;;;5.63;2.03;;;31.20;89.80;;;;;;5073986;28;20052;-74
2022/06/23 11:32:22;;;;;;;6.40;2.15;;;31.30;88.80;;;;;;5073717;28;20483;-75
2022/06/23 11:35:06;;;;;;;11.40;1.98;;;31.40;87.40;;;;;;5091652;28;20125;-76
2022/06/23 11:38:18;;;;;;;3.58;1.58;;;31.50;89.20;;;;;;5092055;28;20051;-77
2022/06/23 11:40:47;;;;;;;7.13;2.22;;;31.50;88.30;;;;;;5091717;28;20044;-78
2022/06/23 11:43:22;;;;;;;9.23;2.08;;;31.60;86.80;;;;;;5091644;28;20051;-76
2022/06/23 11:46:16;;;;;;;5.07;1.90;;;31.70;88.00;;;;;;5091504;28;20047;-76
2022/06/23 11:49:03;;;;;;;4.32;1.92;;;31.80;85.90;;;;;;5091412;28;20571;-75
2022/06/23 11:52:02;;;;;;;5.35;1.67;;;31.70;85.60;;;;;;5091194;28;20047;-77
2022/06/23 11:54:48;;;;;;;3.85;1.60;;;31.80;84.70;;;;;;5091271;28;20487;-76
2022/06/23 11:57:42;;;;;;;7.95;1.88;;;32.00;86.40;;;;;;5073238;28;20119;-74
2022/06/23 12:00:13;;;;;;;8.27;2.07;;;31.90;84.40;;;;;;5072982;28;20048;-80
2022/06/23 12:03:17;;;;;;;5.43;1.80;;;31.90;84.20;;;;;;5073039;28;20036;-76
2022/06/23 12:05:46;;;;;;;6.32;1.65;;;31.90;84.00;;;;;;5091008;28;20051;-74
2022/06/23 12:08:23;;;;;;;5.72;1.30;;;31.90;83.10;;;;;;5090923;28;20044;-75
2022/06/23 12:10:48;;;;;;;3.45;1.35;;;32.10;83.80;;;;;;5091353;28;20060;-73
2022/06/23 12:13:14;;;;;;;5.07;1.65;;;32.30;82.30;;;;;;5090961;28;20051;-74
2022/06/23 12:15:44;;;;;;;6.55;1.80;;;32.30;81.80;;;;;;5091105;28;20085;-74
2022/06/23 12:18:19;;;;;;;5.53;1.30;;;32.40;78.90;;;;;;5073017;28;20044;-75
2022/06/23 12:20:59;;;;;;;6.32;2.38;;;32.30;79.20;;;;;;5090905;28;20036;-75
2022/06/23 12:23:32;;;;;;;2.88;1.45;;;32.40;79.90;;;;;;5090793;28;20495;-74
2022/06/23 12:26:24;;;;;;;9.43;1.70;;;32.50;78.70;;;;;;5090892;28;20073;-76
2022/06/23 12:28:50;;;;;;;10.30;1.90;;;32.50;78.30;;;;;;5090725;28;20048;-76
2022/06/23 12:31:31;;;;;;;5.13;1.48;;;32.60;79.10;;;;;;5072415;28;20040;-74
2022/06/23 12:34:31;;;;;;;4.05;1.33;;;32.60;76.00;;;;;;5090784;28;20136;-75
2022/06/23 12:37:19;;;;;;;4.30;1.30;;;32.60;74.90;;;;;;5027485;28;20049;-76
2022/06/23 12:40:19;;;;;;;4.78;1.80;;;32.60;76.10;;;;;;5027970;28;20049;-76
2022/06/23 12:42:52;;;;;;;4.75;1.40;;;32.80;75.80;;;;;;5028084;28;20060;-75
2022/06/23 12:45:39;;;;;;;6.65;1.50;;;32.80;74.80;;;;;;5027885;28;20065;-74
2022/06/23 12:48:20;;;;;;;5.03;1.45;;;32.90;72.90;;;;;;5027899;28;20049;-75
2022/06/23 12:51:12;;;;;;;4.53;1.20;;;33.10;74.70;;;;;;5028018;28;20861;-74
2022/06/23 12:53:59;;;;;;;7.28;1.25;;;33.30;74.40;;;;;;5027595;28;20593;-76
2022/06/23 12:56:34;;;;;;;5.43;1.33;;;33.30;71.90;;;;;;5028054;28;20053;-75
2022/06/23 12:59:26;;;;;;;4.45;1.67;;;33.30;72.70;;;;;;5011211;28;20131;-76
2022/06/23 13:02:14;;;;;;;3.88;1.05;;;33.30;71.50;;;;;;5027971;28;20586;-75
2022/06/23 13:04:47;;;;;;;4.57;1.10;;;33.20;70.60;;;;;;5027756;28;20041;-75
2022/06/23 13:07:39;;;;;;;3.38;1.30;;;33.40;72.20;;;;;;5027866;28;20049;-76
2022/06/23 13:10:16;;;;;;;6.57;1.35;;;33.50;71.20;;;;;;5027805;28;20045;-76
2022/06/23 13:12:44;;;;;;;4.38;1.73;;;33.50;69.40;;;;;;5027789;28;20045;-75
2022/06/23 13:15:16;;;;;;;2.53;1.20;;;33.60;69.80;;;;;;5070850;28;20064;-75
2022/06/23 13:17:55;;;;;;;2.60;1.20;;;33.60;68.20;;;;;;5090671;28;20105;-77
2022/06/23 13:20:45;;;;;;;2.95;1.20;;;33.50;68.40;;;;;;5090595;28;20052;-75
2022/06/23 13:23:33;;;;;;;6.38;1.20;;;33.40;67.60;;;;;;5072026;28;20189;-75
2022/06/23 13:26:23;;;;;;;3.72;1.33;;;33.60;68.20;;;;;;5090059;28;20513;-76
2022/06/23 13:29:08;;;;;;;5.47;1.10;;;33.50;67.20;;;;;;5090255;28;20136;-77
2022/06/23 13:31:43;;;;;;;2.90;1.65;;;33.50;66.30;;;;;;5090149;28;20089;-75
2022/06/23 13:34:35;;;;;;;6.95;1.35;;;33.70;67.00;;;;;;5090012;28;20052;-76
2022/06/23 13:37:13;;;;;;;5.35;0.93;;;33.60;65.70;;;;;;5090283;28;20052;-76
2022/06/23 13:40:03;;;;;;;2.40;1.20;;;33.80;68.00;;;;;;5089998;28;20032;-75
2022/06/23 13:42:54;;;;;;;3.03;1.27;;;33.90;67.00;;;;;;5090223;28;20051;-75
2022/06/23 13:45:43;;;;;;;4.70;1.50;;;33.90;64.20;;;;;;5090073;28;20048;-75
2022/06/23 13:48:26;;;;;;;4.40;1.17;;;33.90;63.50;;;;;;5091094;28;20055;-78
2022/06/23 13:51:07;;;;;;;3.85;1.50;;;34.00;64.60;;;;;;5075587;28;20084;-80
2022/06/23 13:53:58;;;;;;;4.32;1.30;;;34.10;62.70;;;;;;5094041;28;20047;-76
2022/06/23 13:56:37;;;;;;;4.35;1.10;;;34.10;65.10;;;;;;5075868;28;20172;-78
2022/06/23 13:59:40;;;;;;;2.95;1.38;;;34.10;63.30;;;;;;5075809;28;20122;-78
2022/06/23 14:02:21;;;;;;;3.83;1.50;;;34.30;64.30;;;;;;5093615;28;20062;-75